createdAt,value
2022-10-09T00:00:59.209Z,96369
2022-10-09T00:02:07.957Z,96368
2022-10-09T00:03:17.648Z,96368
2022-10-09T00:04:27.313Z,96368
2022-10-09T00:05:36.197Z,96363
2022-10-09T00:06:45.840Z,96362
2022-10-09T00:07:53.510Z,96362
2022-10-09T00:09:02.320Z,96365
2022-10-09T00:10:11.897Z,96362
2022-10-09T00:11:19.622Z,96363
2022-10-09T00:12:28.422Z,96364
2022-10-09T00:13:38.070Z,96362
2022-10-09T00:14:47.761Z,96365
2022-10-09T00:15:57.456Z,96364
2022-10-09T00:17:05.252Z,96363
2022-10-09T00:18:13.938Z,96362
2022-10-09T00:19:23.645Z,96365
2022-10-09T00:20:33.356Z,96364
2022-10-09T00:21:43.042Z,96361
2022-10-09T00:22:51.012Z,96359
2022-10-09T00:24:00.450Z,96361
2022-10-09T00:25:10.171Z,96358
2022-10-09T00:26:18.909Z,96361
2022-10-09T00:27:28.602Z,96360
2022-10-09T00:28:38.766Z,96360
2022-10-09T00:29:45.105Z,96357
2022-10-09T00:30:53.945Z,96358
2022-10-09T00:32:03.552Z,96356
2022-10-09T00:33:12.240Z,96351
2022-10-09T00:34:21.955Z,96352
2022-10-09T00:35:30.669Z,96352
2022-10-09T00:36:39.320Z,96349
2022-10-09T00:37:48.997Z,96351
2022-10-09T00:38:55.718Z,96355
2022-10-09T00:40:05.449Z,96351
2022-10-09T00:41:14.166Z,96353
2022-10-09T00:42:22.834Z,96352
2022-10-09T00:43:32.548Z,96346
2022-10-09T00:44:41.320Z,96342
2022-10-09T00:45:50.090Z,96343
2022-10-09T00:46:59.786Z,96338
2022-10-09T00:48:08.575Z,96338
2022-10-09T00:49:18.262Z,96339
2022-10-09T00:50:26.969Z,96341
2022-10-09T00:51:35.661Z,96339
2022-10-09T00:52:45.409Z,96340
2022-10-09T00:53:52.996Z,96334
2022-10-09T00:55:01.694Z,96334
2022-10-09T00:56:11.400Z,96333
2022-10-09T00:57:20.107Z,96333
2022-10-09T00:58:28.819Z,96336
2022-10-09T00:59:38.483Z,96331
2022-10-09T01:00:47.207Z,96328
2022-10-09T01:01:57.060Z,96332
2022-10-09T01:03:04.647Z,96323
2022-10-09T01:04:13.344Z,96329
2022-10-09T01:05:23.039Z,96325
2022-10-09T01:06:30.736Z,96320
2022-10-09T01:07:40.457Z,96322
2022-10-09T01:08:49.243Z,96320
2022-10-09T01:09:57.922Z,96319
2022-10-09T01:11:07.657Z,96317
2022-10-09T01:12:15.343Z,96318
2022-10-09T01:13:23.994Z,96323
2022-10-09T01:14:33.722Z,96321
2022-10-09T01:15:41.447Z,96318
2022-10-09T01:16:50.092Z,96316
2022-10-09T01:17:59.820Z,96316
2022-10-09T01:19:08.562Z,96322
2022-10-09T01:20:18.306Z,96314
2022-10-09T01:21:25.992Z,96312
2022-10-09T01:22:34.694Z,96314
2022-10-09T01:23:44.397Z,96313
2022-10-09T01:24:54.085Z,96310
2022-10-09T01:26:03.845Z,96308
2022-10-09T01:27:11.526Z,96306
2022-10-09T01:28:20.308Z,96304
2022-10-09T01:29:28.946Z,96303
2022-10-09T01:30:38.799Z,96301
2022-10-09T01:31:48.601Z,96303
2022-10-09T01:32:56.304Z,96303
2022-10-09T01:34:04.993Z,96301
2022-10-09T01:35:15.682Z,96308
2022-10-09T01:36:24.385Z,96305
2022-10-09T01:37:33.105Z,96301
2022-10-09T01:38:40.869Z,96305
2022-10-09T01:39:49.637Z,96302
2022-10-09T01:40:59.350Z,96298
2022-10-09T01:42:08.081Z,96297
2022-10-09T01:43:16.866Z,96295
2022-10-09T01:44:26.589Z,96297
2022-10-09T01:45:35.278Z,96296
2022-10-09T01:46:44.955Z,96293
2022-10-09T01:47:54.657Z,96293
2022-10-09T01:49:03.372Z,96291
2022-10-09T01:50:13.068Z,96296
2022-10-09T01:51:20.766Z,96295
2022-10-09T01:52:29.459Z,96287
2022-10-09T01:53:40.190Z,96288
2022-10-09T01:54:49.940Z,96286
2022-10-09T01:55:59.662Z,96282
2022-10-09T01:57:09.344Z,96279
2022-10-09T01:58:19.014Z,96280
2022-10-09T01:59:28.737Z,96280
2022-10-09T02:00:37.553Z,96278
2022-10-09T02:01:46.410Z,96280
2022-10-09T02:02:56.027Z,96278
2022-10-09T02:04:04.675Z,96270
2022-10-09T02:05:13.358Z,96269
2022-10-09T02:06:23.064Z,96265
2022-10-09T02:07:31.739Z,96261
2022-10-09T02:08:41.426Z,96264
2022-10-09T02:09:49.108Z,96262
2022-10-09T02:10:57.793Z,96262
2022-10-09T02:12:07.644Z,96261
2022-10-09T02:13:17.374Z,96253
2022-10-09T02:14:26.044Z,96253
2022-10-09T02:15:34.902Z,96256
2022-10-09T02:16:44.515Z,96261
2022-10-09T02:17:54.259Z,96262
2022-10-09T02:19:00.916Z,96259
2022-10-09T02:20:09.631Z,96263
2022-10-09T02:21:19.315Z,96256
2022-10-09T02:22:27.009Z,96254
2022-10-09T02:23:36.738Z,96252
2022-10-09T02:24:46.427Z,96248
2022-10-09T02:25:56.119Z,96248
2022-10-09T02:27:05.867Z,96248
2022-10-09T02:28:13.825Z,96245
2022-10-09T02:29:23.555Z,96248
2022-10-09T02:30:33.264Z,96250
2022-10-09T02:31:41.001Z,96246
2022-10-09T02:32:50.922Z,96248
2022-10-09T02:34:00.396Z,96243
2022-10-09T02:35:09.209Z,96246
2022-10-09T02:36:18.896Z,96246
2022-10-09T02:37:27.583Z,96243
2022-10-09T02:38:36.276Z,96239
2022-10-09T02:39:45.965Z,96240
2022-10-09T02:40:53.682Z,96240
2022-10-09T02:42:02.385Z,96239
2022-10-09T02:43:11.090Z,96251
2022-10-09T02:44:20.892Z,96252
2022-10-09T02:45:30.599Z,96255
2022-10-09T02:46:38.468Z,96259
2022-10-09T02:47:47.043Z,96254
2022-10-09T02:48:56.723Z,96251
2022-10-09T02:50:05.491Z,96246
2022-10-09T02:51:14.208Z,96248
2022-10-09T02:52:23.923Z,96247
2022-10-09T02:53:33.604Z,96247
2022-10-09T02:54:43.306Z,96245
2022-10-09T02:55:51.998Z,96248
2022-10-09T02:57:01.680Z,96251
2022-10-09T02:58:11.446Z,96253
2022-10-09T02:59:19.164Z,96251
2022-10-09T03:00:28.837Z,96250
2022-10-09T03:01:38.635Z,96250
2022-10-09T03:02:48.492Z,96250
2022-10-09T03:03:58.030Z,96247
2022-10-09T03:05:06.758Z,96249
2022-10-09T03:06:15.444Z,96246
2022-10-09T03:07:25.158Z,96245
2022-10-09T03:08:32.808Z,96247
2022-10-09T03:09:41.506Z,96245
2022-10-09T03:10:50.180Z,96241
2022-10-09T03:11:58.890Z,96242
2022-10-09T03:13:08.644Z,96236
2022-10-09T03:14:16.325Z,96241
2022-10-09T03:15:25.164Z,96239
2022-10-09T03:16:34.914Z,96235
2022-10-09T03:17:44.585Z,96241
2022-10-09T03:18:54.296Z,96233
2022-10-09T03:20:03.004Z,96239
2022-10-09T03:21:12.726Z,96231
2022-10-09T03:22:21.409Z,96229
2022-10-09T03:23:29.079Z,96227
2022-10-09T03:24:38.815Z,96230
2022-10-09T03:25:47.514Z,96229
2022-10-09T03:26:57.251Z,96226
2022-10-09T03:28:07.039Z,96221
2022-10-09T03:29:14.700Z,96225
2022-10-09T03:30:23.386Z,96222
2022-10-09T03:31:52.179Z,96223
2022-10-09T03:32:43.051Z,96224
2022-10-09T03:33:52.935Z,96225
2022-10-09T03:35:00.618Z,96228
2022-10-09T03:36:09.305Z,96225
2022-10-09T03:37:18.006Z,96223
2022-10-09T03:38:26.831Z,96225
2022-10-09T03:39:35.540Z,96226
2022-10-09T03:40:44.256Z,96226
2022-10-09T03:41:52.964Z,96230
2022-10-09T03:43:02.696Z,96227
2022-10-09T03:44:11.440Z,96227
2022-10-09T03:45:20.220Z,96228
2022-10-09T03:46:29.908Z,96229
2022-10-09T03:47:37.544Z,96230
2022-10-09T03:48:47.326Z,96226
2022-10-09T03:49:56.979Z,96228
2022-10-09T03:51:05.702Z,96226
2022-10-09T03:52:14.431Z,96226
2022-10-09T03:53:24.101Z,96224
2022-10-09T03:54:32.792Z,96225
2022-10-09T03:55:42.539Z,96225
2022-10-09T03:56:51.239Z,96225
2022-10-09T03:57:59.956Z,96225
2022-10-09T03:59:08.680Z,96223
2022-10-09T04:00:18.376Z,96218
2022-10-09T04:01:27.149Z,96221
2022-10-09T04:02:34.873Z,96220
2022-10-09T04:03:44.545Z,96224
2022-10-09T04:04:54.275Z,96228
2022-10-09T04:06:03.914Z,96228
2022-10-09T04:07:12.633Z,96229
2022-10-09T04:08:21.403Z,96223
2022-10-09T04:09:30.081Z,96225
2022-10-09T04:10:39.796Z,96222
2022-10-09T04:11:49.492Z,96215
2022-10-09T04:12:58.215Z,96215
2022-10-09T04:14:07.883Z,96213
2022-10-09T04:15:15.574Z,96222
2022-10-09T04:16:24.327Z,96219
2022-10-09T04:17:32.987Z,96217
2022-10-09T04:18:41.743Z,96215
2022-10-09T04:19:51.443Z,96216
2022-10-09T04:21:00.191Z,96215
2022-10-09T04:22:08.835Z,96214
2022-10-09T04:23:18.595Z,96214
2022-10-09T04:24:26.319Z,96213
2022-10-09T04:25:35.016Z,96216
2022-10-09T04:26:43.713Z,96211
2022-10-09T04:27:52.459Z,96218
2022-10-09T04:29:02.166Z,96214
2022-10-09T04:30:09.895Z,96221
2022-10-09T04:31:19.636Z,96213
2022-10-09T04:32:29.270Z,96217
2022-10-09T04:33:36.962Z,96216
2022-10-09T04:34:47.664Z,96212
2022-10-09T04:35:57.412Z,96211
2022-10-09T04:37:06.138Z,96214
2022-10-09T04:38:15.851Z,96212
2022-10-09T04:39:23.524Z,96214
2022-10-09T04:40:33.250Z,96212
2022-10-09T04:41:43.000Z,96209
2022-10-09T04:42:50.862Z,96207
2022-10-09T04:43:59.369Z,96209
2022-10-09T04:45:08.043Z,96208
2022-10-09T04:46:17.808Z,96208
2022-10-09T04:47:27.441Z,96212
2022-10-09T04:48:35.115Z,96212
2022-10-09T04:49:43.797Z,96209
2022-10-09T04:50:53.512Z,96214
2022-10-09T04:52:01.231Z,96217
2022-10-09T04:53:11.050Z,96221
2022-10-09T04:54:20.773Z,96218
2022-10-09T04:55:30.519Z,96213
2022-10-09T04:56:40.242Z,96213
2022-10-09T04:57:47.928Z,96209
2022-10-09T04:58:57.664Z,96209
2022-10-09T05:00:07.397Z,96207
2022-10-09T05:01:16.148Z,96201
2022-10-09T05:02:24.850Z,96203
2022-10-09T05:03:33.524Z,96197
2022-10-09T05:04:42.248Z,96197
2022-10-09T05:05:51.943Z,96197
2022-10-09T05:07:00.649Z,96197
2022-10-09T05:08:10.367Z,96199
2022-10-09T05:09:21.049Z,96198
2022-10-09T05:10:30.886Z,96200
2022-10-09T05:11:42.760Z,96194
2022-10-09T05:12:50.552Z,96197
2022-10-09T05:13:58.968Z,96195
2022-10-09T05:15:08.694Z,96199
2022-10-09T05:16:17.472Z,96194
2022-10-09T05:17:26.178Z,96197
2022-10-09T05:18:35.851Z,96195
2022-10-09T05:19:43.538Z,96194
2022-10-09T05:20:52.249Z,96192
2022-10-09T05:22:00.111Z,96198
2022-10-09T05:23:09.807Z,96196
2022-10-09T05:24:18.539Z,96195
2022-10-09T05:25:28.266Z,96193
2022-10-09T05:26:37.963Z,96200
2022-10-09T05:27:45.667Z,96197
2022-10-09T05:28:55.350Z,96194
2022-10-09T05:30:05.082Z,96192
2022-10-09T05:31:12.810Z,96187
2022-10-09T05:32:21.465Z,96191
2022-10-09T05:33:30.248Z,96191
2022-10-09T05:34:39.009Z,96193
2022-10-09T05:35:48.714Z,96199
2022-10-09T05:36:57.437Z,96198
2022-10-09T05:38:05.121Z,96198
2022-10-09T05:39:13.852Z,96194
2022-10-09T05:40:24.649Z,96199
2022-10-09T05:41:32.269Z,96196
2022-10-09T05:42:41.931Z,96192
2022-10-09T05:43:50.672Z,96198
2022-10-09T05:45:00.652Z,96193
2022-10-09T05:46:10.380Z,96189
2022-10-09T05:47:19.067Z,96191
2022-10-09T05:48:28.807Z,96192
2022-10-09T05:49:36.561Z,96197
2022-10-09T05:50:46.365Z,96197
2022-10-09T05:51:55.098Z,96196
2022-10-09T05:53:03.786Z,96197
2022-10-09T05:54:13.506Z,96199
2022-10-09T05:55:22.261Z,96193
2022-10-09T05:56:32.054Z,96190
2022-10-09T05:57:40.794Z,96190
2022-10-09T05:58:50.545Z,96187
2022-10-09T05:59:59.235Z,96187
2022-10-09T06:01:08.106Z,96183
2022-10-09T06:02:16.903Z,96182
2022-10-09T06:03:26.572Z,96183
2022-10-09T06:04:35.339Z,96182
2022-10-09T06:05:44.079Z,96182
2022-10-09T06:06:52.796Z,96186
2022-10-09T06:08:00.644Z,96187
2022-10-09T06:09:09.396Z,96185
2022-10-09T06:10:19.131Z,96189
2022-10-09T06:11:28.848Z,96192
2022-10-09T06:12:37.540Z,96190
2022-10-09T06:13:45.447Z,96195
2022-10-09T06:14:54.175Z,96195
2022-10-09T06:16:03.877Z,96189
2022-10-09T06:17:12.589Z,96195
2022-10-09T06:18:21.291Z,96190
2022-10-09T06:19:30.054Z,96194
2022-10-09T06:20:38.750Z,96189
2022-10-09T06:21:48.439Z,96187
2022-10-09T06:22:56.140Z,96190
2022-10-09T06:24:04.817Z,96188
2022-10-09T06:25:14.610Z,96188
2022-10-09T06:26:22.393Z,96188
2022-10-09T06:27:31.089Z,96191
2022-10-09T06:28:39.928Z,96186
2022-10-09T06:29:48.639Z,96192
2022-10-09T06:30:58.359Z,96191
2022-10-09T06:32:07.057Z,96192
2022-10-09T06:33:15.882Z,96196
2022-10-09T06:34:25.594Z,96194
2022-10-09T06:35:34.282Z,96198
2022-10-09T06:36:44.067Z,96198
2022-10-09T06:37:52.764Z,96204
2022-10-09T06:39:01.508Z,96205
2022-10-09T06:40:10.225Z,96211
2022-10-09T06:41:18.965Z,96209
2022-10-09T06:42:27.721Z,96215
2022-10-09T06:43:37.409Z,96215
2022-10-09T06:44:46.170Z,96213
2022-10-09T06:45:55.896Z,96219
2022-10-09T06:47:05.544Z,96220
2022-10-09T06:48:15.503Z,96218
2022-10-09T06:49:25.287Z,96220
2022-10-09T06:50:32.989Z,96213
2022-10-09T06:51:42.824Z,96209
2022-10-09T06:52:51.801Z,96213
2022-10-09T06:54:00.237Z,96212
2022-10-09T06:55:08.966Z,96215
2022-10-09T06:56:17.690Z,96208
2022-10-09T06:57:26.385Z,96214
2022-10-09T06:58:36.072Z,96212
2022-10-09T06:59:44.772Z,96211
2022-10-09T07:00:54.446Z,96205
2022-10-09T07:02:04.256Z,96209
2022-10-09T07:03:13.947Z,96210
2022-10-09T07:04:23.627Z,96215
2022-10-09T07:05:33.353Z,96211
2022-10-09T07:06:43.045Z,96212
2022-10-09T07:07:52.804Z,96215
2022-10-09T07:09:02.553Z,96215
2022-10-09T07:10:11.236Z,96217
2022-10-09T07:11:21.971Z,96213
2022-10-09T07:12:29.689Z,96216
2022-10-09T07:13:39.383Z,96211
2022-10-09T07:14:48.100Z,96205
2022-10-09T07:15:58.705Z,96212
2022-10-09T07:17:07.578Z,96211
2022-10-09T07:18:17.248Z,96214
2022-10-09T07:19:26.954Z,96211
2022-10-09T07:20:34.688Z,96214
2022-10-09T07:21:43.353Z,96217
2022-10-09T07:22:53.049Z,96218
2022-10-09T07:24:00.731Z,96219
2022-10-09T07:25:09.396Z,96216
2022-10-09T07:26:18.086Z,96220
2022-10-09T07:27:27.832Z,96220
2022-10-09T07:28:37.765Z,96221
2022-10-09T07:29:46.428Z,96219
2022-10-09T07:30:56.155Z,96217
2022-10-09T07:32:09.652Z,96221
2022-10-09T07:33:14.537Z,96214
2022-10-09T07:34:24.226Z,96217
2022-10-09T07:35:33.920Z,96224
2022-10-09T07:36:43.624Z,96224
2022-10-09T07:37:53.327Z,96215
2022-10-09T07:39:02.102Z,96216
2022-10-09T07:40:10.868Z,96210
2022-10-09T07:41:20.582Z,96214
2022-10-09T07:42:29.275Z,96214
2022-10-09T07:43:38.970Z,96216
2022-10-09T07:44:47.678Z,96216
2022-10-09T07:45:56.446Z,96211
2022-10-09T07:47:06.165Z,96208
2022-10-09T07:48:13.894Z,96204
2022-10-09T07:49:23.625Z,96211
2022-10-09T07:50:33.302Z,96213
2022-10-09T07:51:42.009Z,96209
2022-10-09T07:52:51.924Z,96213
2022-10-09T07:54:00.475Z,96220
2022-10-09T07:55:10.195Z,96215
2022-10-09T07:56:19.934Z,96218
2022-10-09T07:57:28.644Z,96221
2022-10-09T07:58:38.362Z,96220
2022-10-09T07:59:48.077Z,96210
2022-10-09T08:00:55.838Z,96216
2022-10-09T08:02:05.592Z,96216
2022-10-09T08:03:14.335Z,96217
2022-10-09T08:04:23.021Z,96217
2022-10-09T08:05:32.784Z,96215
2022-10-09T08:06:42.460Z,96217
2022-10-09T08:07:51.167Z,96217
2022-10-09T08:09:00.907Z,96220
2022-10-09T08:10:09.638Z,96221
2022-10-09T08:11:19.368Z,96218
2022-10-09T08:12:28.041Z,96219
2022-10-09T08:13:36.739Z,96214
2022-10-09T08:14:46.486Z,96217
2022-10-09T08:15:54.263Z,96212
2022-10-09T08:17:03.938Z,96212
2022-10-09T08:18:13.724Z,96210
2022-10-09T08:19:21.477Z,96211
2022-10-09T08:20:30.225Z,96212
2022-10-09T08:21:40.960Z,96213
2022-10-09T08:22:50.962Z,96216
2022-10-09T08:24:00.294Z,96214
2022-10-09T08:25:07.968Z,96210
2022-10-09T08:26:17.799Z,96210
2022-10-09T08:27:27.373Z,96206
2022-10-09T08:28:35.133Z,96208
2022-10-09T08:29:44.799Z,96208
2022-10-09T08:30:53.539Z,96207
2022-10-09T08:32:03.355Z,96198
2022-10-09T08:33:13.065Z,96202
2022-10-09T08:34:20.748Z,96203
2022-10-09T08:35:34.381Z,96204
2022-10-09T08:36:40.181Z,96206
2022-10-09T08:37:47.854Z,96206
2022-10-09T08:38:58.624Z,96204
2022-10-09T08:40:08.308Z,96204
2022-10-09T08:41:18.002Z,96204
2022-10-09T08:42:27.731Z,96202
2022-10-09T08:43:36.440Z,96203
2022-10-09T08:44:46.173Z,96201
2022-10-09T08:45:55.884Z,96201
2022-10-09T08:47:04.544Z,96199
2022-10-09T08:48:14.358Z,96204
2022-10-09T08:49:23.104Z,96202
2022-10-09T08:50:31.856Z,96197
2022-10-09T08:51:40.632Z,96202
2022-10-09T08:52:50.233Z,96198
2022-10-09T08:54:00.078Z,96199
2022-10-09T08:55:10.220Z,96203
2022-10-09T08:56:20.789Z,96202
2022-10-09T08:57:29.466Z,96200
2022-10-09T08:58:38.139Z,96195
2022-10-09T08:59:46.801Z,96197
2022-10-09T09:00:56.534Z,96194
2022-10-09T09:02:05.252Z,96194
2022-10-09T09:03:14.978Z,96194
2022-10-09T09:04:24.634Z,96194
2022-10-09T09:05:33.335Z,96192
2022-10-09T09:06:42.061Z,96191
2022-10-09T09:07:50.763Z,96187
2022-10-09T09:08:59.470Z,96189
2022-10-09T09:10:09.270Z,96188
2022-10-09T09:11:21.556Z,96184
2022-10-09T09:12:27.643Z,96184
2022-10-09T09:13:37.336Z,96185
2022-10-09T09:14:47.048Z,96182
2022-10-09T09:15:55.813Z,96180
2022-10-09T09:17:04.543Z,96183
2022-10-09T09:18:13.410Z,96179
2022-10-09T09:19:23.094Z,96181
2022-10-09T09:20:31.829Z,96184
2022-10-09T09:21:41.515Z,96177
2022-10-09T09:22:50.688Z,96178
2022-10-09T09:23:58.070Z,96176
2022-10-09T09:25:07.773Z,96175
2022-10-09T09:26:17.472Z,96172
2022-10-09T09:27:26.123Z,96174
2022-10-09T09:28:34.865Z,96175
2022-10-09T09:29:43.539Z,96173
2022-10-09T09:30:54.244Z,96172
2022-10-09T09:32:03.937Z,96172
2022-10-09T09:33:12.606Z,96173
2022-10-09T09:34:22.323Z,96171
2022-10-09T09:35:31.170Z,96172
2022-10-09T09:36:39.856Z,96179
2022-10-09T09:37:49.597Z,96175
2022-10-09T09:39:54.510Z,96164
2022-10-09T09:40:35.346Z,96169
2022-10-09T09:41:19.720Z,96172
2022-10-09T09:42:28.395Z,96167
2022-10-09T09:43:38.082Z,96166
2022-10-09T09:44:44.761Z,96165
2022-10-09T09:45:53.473Z,96168
2022-10-09T09:47:03.252Z,96167
2022-10-09T09:48:11.934Z,96168
2022-10-09T09:49:21.655Z,96166
2022-10-09T09:50:46.888Z,96165
2022-10-09T09:51:41.057Z,96164
2022-10-09T09:52:49.802Z,96163
2022-10-09T09:53:57.493Z,96164
2022-10-09T09:55:05.212Z,96163
2022-10-09T09:56:14.918Z,96159
2022-10-09T09:57:23.641Z,96159
2022-10-09T09:58:33.360Z,96155
2022-10-09T09:59:43.078Z,96152
2022-10-09T10:00:52.813Z,96161
2022-10-09T10:02:02.526Z,96151
2022-10-09T10:03:11.178Z,96156
2022-10-09T10:04:20.906Z,96156
2022-10-09T10:05:29.583Z,96155
2022-10-09T10:06:39.312Z,96154
2022-10-09T10:07:48.989Z,96149
2022-10-09T10:08:56.684Z,96150
2022-10-09T10:10:05.427Z,96148
2022-10-09T10:11:15.115Z,96149
2022-10-09T10:12:24.808Z,96148
2022-10-09T10:13:34.520Z,96145
2022-10-09T10:14:44.216Z,96144
2022-10-09T10:15:53.971Z,96139
2022-10-09T10:17:03.645Z,96141
2022-10-09T10:18:12.363Z,96141
2022-10-09T10:19:21.026Z,96142
2022-10-09T10:20:30.748Z,96142
2022-10-09T10:21:40.621Z,96142
2022-10-09T10:22:49.583Z,96136
2022-10-09T10:23:59.104Z,96135
2022-10-09T10:25:10.551Z,96132
2022-10-09T10:26:19.662Z,96132
2022-10-09T10:27:29.497Z,96130
2022-10-09T10:28:39.213Z,96129
2022-10-09T10:29:48.867Z,96128
2022-10-09T10:30:58.639Z,96123
2022-10-09T10:32:08.410Z,96123
2022-10-09T10:33:17.138Z,96124
2022-10-09T10:34:25.823Z,96124
2022-10-09T10:35:35.567Z,96126
2022-10-09T10:36:44.251Z,96126
2022-10-09T10:37:52.991Z,96124
2022-10-09T10:39:02.838Z,96125
2022-10-09T10:40:11.552Z,96124
2022-10-09T10:41:20.242Z,96125
2022-10-09T10:42:28.962Z,96124
2022-10-09T10:43:37.689Z,96125
2022-10-09T10:44:47.412Z,96125
2022-10-09T10:45:56.100Z,96119
2022-10-09T10:47:05.782Z,96120
2022-10-09T10:48:15.471Z,96116
2022-10-09T10:49:24.155Z,96120
2022-10-09T10:50:33.842Z,96117
2022-10-09T10:51:43.497Z,96117
2022-10-09T10:52:52.166Z,96117
2022-10-09T10:54:01.878Z,96118
2022-10-09T10:55:11.552Z,96117
2022-10-09T10:56:21.624Z,96121
2022-10-09T10:57:32.469Z,96120
2022-10-09T10:58:41.209Z,96118
2022-10-09T10:59:50.932Z,96116
2022-10-09T11:01:00.656Z,96119
2022-10-09T11:02:10.339Z,96116
2022-10-09T11:03:20.060Z,96107
2022-10-09T11:04:27.756Z,96118
2022-10-09T11:05:36.465Z,96110
2022-10-09T11:06:46.168Z,96102
2022-10-09T11:07:59.869Z,96103
2022-10-09T11:09:04.588Z,96106
2022-10-09T11:10:13.300Z,96105
2022-10-09T11:11:22.080Z,96105
2022-10-09T11:12:47.111Z,96105
2022-10-09T11:13:42.698Z,96107
2022-10-09T11:14:51.378Z,96108
2022-10-09T11:16:01.210Z,96106
2022-10-09T11:17:10.863Z,96094
2022-10-09T11:18:20.562Z,96111
2022-10-09T11:19:29.313Z,96099
2022-10-09T11:20:38.016Z,96093
2022-10-09T11:21:47.768Z,96092
2022-10-09T11:22:56.529Z,96096
2022-10-09T11:24:06.251Z,96087
2022-10-09T11:25:14.951Z,96089
2022-10-09T11:26:24.693Z,96086
2022-10-09T11:27:34.399Z,96094
2022-10-09T11:28:42.322Z,96088
2022-10-09T11:29:50.850Z,96085
2022-10-09T11:30:59.671Z,96090
2022-10-09T11:32:09.430Z,96086
2022-10-09T11:33:19.101Z,96086
2022-10-09T11:34:28.791Z,96080
2022-10-09T11:35:37.471Z,96080
2022-10-09T11:36:47.340Z,96075
2022-10-09T11:37:55.999Z,96081
2022-10-09T11:39:05.758Z,96074
2022-10-09T11:40:15.547Z,96076
2022-10-09T11:41:24.173Z,96073
2022-10-09T11:42:34.100Z,96080
2022-10-09T11:43:42.786Z,96066
2022-10-09T11:44:51.472Z,96063
2022-10-09T11:46:01.383Z,96068
2022-10-09T11:47:10.087Z,96065
2022-10-09T11:48:19.749Z,96060
2022-10-09T11:49:29.429Z,96059
2022-10-09T11:50:39.091Z,96057
2022-10-09T11:51:47.783Z,96057
2022-10-09T11:52:57.463Z,96056
2022-10-09T11:54:06.222Z,96052
2022-10-09T11:55:15.940Z,96050
2022-10-09T11:56:25.619Z,96051
2022-10-09T11:57:34.326Z,96049
2022-10-09T11:58:43.011Z,96051
2022-10-09T11:59:52.704Z,96047
2022-10-09T12:01:02.463Z,96043
2022-10-09T12:02:11.262Z,96044
2022-10-09T12:03:19.894Z,96041
2022-10-09T12:04:43.468Z,96040
2022-10-09T12:05:40.267Z,96037
2022-10-09T12:06:49.936Z,96043
2022-10-09T12:07:58.632Z,96037
2022-10-09T12:09:08.292Z,96041
2022-10-09T12:10:18.008Z,96041
2022-10-09T12:11:25.749Z,96039
2022-10-09T12:12:34.441Z,96042
2022-10-09T12:13:44.183Z,96046
2022-10-09T12:14:51.850Z,96045
2022-10-09T12:16:01.562Z,96043
2022-10-09T12:17:11.313Z,96031
2022-10-09T12:18:19.999Z,96037
2022-10-09T12:19:29.685Z,96035
2022-10-09T12:20:37.390Z,96040
2022-10-09T12:21:47.042Z,96041
2022-10-09T12:23:21.601Z,96032
2022-10-09T12:24:07.468Z,96029
2022-10-09T12:25:17.174Z,96035
2022-10-09T12:26:25.860Z,96030
2022-10-09T12:27:35.538Z,96029
2022-10-09T12:28:45.299Z,96026
2022-10-09T12:29:52.959Z,96020
2022-10-09T12:31:01.782Z,96020
2022-10-09T12:32:11.461Z,96023
2022-10-09T12:33:20.128Z,96026
2022-10-09T12:34:29.863Z,96021
2022-10-09T12:35:39.607Z,96020
2022-10-09T12:36:49.259Z,96015
2022-10-09T12:37:58.957Z,96014
2022-10-09T12:39:06.629Z,96016
2022-10-09T12:40:15.348Z,96014
2022-10-09T12:41:25.034Z,96014
2022-10-09T12:42:33.736Z,96009
2022-10-09T12:43:42.463Z,96011
2022-10-09T12:44:52.229Z,96014
2022-10-09T12:46:02.101Z,96011
2022-10-09T12:47:11.729Z,96009
2022-10-09T12:48:20.471Z,96006
2022-10-09T12:49:29.166Z,96004
2022-10-09T12:50:38.831Z,96006
2022-10-09T12:51:49.392Z,96003
2022-10-09T12:52:58.193Z,96001
2022-10-09T12:54:06.921Z,96001
2022-10-09T12:55:15.627Z,95999
2022-10-09T12:56:25.326Z,95996
2022-10-09T12:57:34.140Z,95995
2022-10-09T12:58:42.790Z,96000
2022-10-09T12:59:52.509Z,95997
2022-10-09T13:01:01.375Z,95994
2022-10-09T13:02:11.003Z,95990
2022-10-09T13:03:19.627Z,95985
2022-10-09T13:04:28.292Z,95987
2022-10-09T13:05:38.006Z,95987
2022-10-09T13:06:44.674Z,95986
2022-10-09T13:07:54.425Z,95985
2022-10-09T13:09:04.120Z,95979
2022-10-09T13:10:13.836Z,95972
2022-10-09T13:11:22.495Z,95973
2022-10-09T13:12:31.177Z,95970
2022-10-09T13:13:38.899Z,95974
2022-10-09T13:14:48.721Z,95973
2022-10-09T13:15:57.457Z,95969
2022-10-09T13:17:07.166Z,95973
2022-10-09T13:18:14.842Z,95966
2022-10-09T13:19:23.507Z,95966
2022-10-09T13:20:33.244Z,95970
2022-10-09T13:21:40.919Z,95970
2022-10-09T13:22:48.902Z,95965
2022-10-09T13:23:58.343Z,95969
2022-10-09T13:25:07.064Z,95974
2022-10-09T13:26:16.780Z,95972
2022-10-09T13:27:25.462Z,95972
2022-10-09T13:28:34.180Z,95973
2022-10-09T13:29:43.831Z,95970
2022-10-09T13:30:51.557Z,95976
2022-10-09T13:32:01.342Z,95980
2022-10-09T13:33:11.032Z,95975
2022-10-09T13:34:20.780Z,95977
2022-10-09T13:35:30.478Z,95968
2022-10-09T13:36:38.208Z,95976
2022-10-09T13:37:47.213Z,95979
2022-10-09T13:38:56.607Z,95974
2022-10-09T13:40:05.378Z,95973
2022-10-09T13:41:13.120Z,95976
2022-10-09T13:42:22.897Z,95969
2022-10-09T13:43:31.631Z,95974
2022-10-09T13:44:40.338Z,95972
2022-10-09T13:45:50.140Z,95978
2022-10-09T13:46:58.844Z,95974
2022-10-09T13:48:08.543Z,95968
2022-10-09T13:49:17.395Z,95963
2022-10-09T13:50:27.078Z,95968
2022-10-09T13:51:35.755Z,95961
2022-10-09T13:52:44.513Z,95962
2022-10-09T13:53:54.374Z,95956
2022-10-09T13:55:03.102Z,95956
2022-10-09T13:56:12.917Z,95956
2022-10-09T13:57:22.591Z,95953
2022-10-09T13:58:32.283Z,95952
2022-10-09T13:59:41.023Z,95952
2022-10-09T14:00:50.772Z,95953
2022-10-09T14:02:00.625Z,95946
2022-10-09T14:03:10.246Z,95952
2022-10-09T14:04:19.908Z,95949
2022-10-09T14:05:28.660Z,95946
2022-10-09T14:06:38.370Z,95941
2022-10-09T14:07:47.051Z,95949
2022-10-09T14:08:55.732Z,95948
2022-10-09T14:10:05.473Z,95945
2022-10-09T14:11:15.200Z,95942
2022-10-09T14:12:23.876Z,95944
2022-10-09T14:13:31.544Z,95944
2022-10-09T14:14:41.279Z,95946
2022-10-09T14:15:50.982Z,95935
2022-10-09T14:16:58.660Z,95939
2022-10-09T14:18:06.411Z,95937
2022-10-09T14:19:15.097Z,95937
2022-10-09T14:20:23.820Z,95934
2022-10-09T14:21:33.503Z,95936
2022-10-09T14:22:42.292Z,95931
2022-10-09T14:23:52.022Z,95928
2022-10-09T14:25:01.713Z,95931
2022-10-09T14:26:09.408Z,95926
2022-10-09T14:27:19.401Z,95927
2022-10-09T14:28:29.132Z,95920
2022-10-09T14:29:37.908Z,95926
2022-10-09T14:30:47.602Z,95924
2022-10-09T14:31:56.310Z,95918
2022-10-09T14:33:06.020Z,95917
2022-10-09T14:34:15.731Z,95915
2022-10-09T14:35:24.469Z,95915
2022-10-09T14:36:34.191Z,95912
2022-10-09T14:37:43.951Z,95912
2022-10-09T14:38:52.676Z,95909
2022-10-09T14:40:02.370Z,95912
2022-10-09T14:41:09.112Z,95914
2022-10-09T14:42:18.808Z,95912
2022-10-09T14:43:28.519Z,95913
2022-10-09T14:44:37.212Z,95906
2022-10-09T14:45:45.889Z,95906
2022-10-09T14:46:54.649Z,95901
2022-10-09T14:48:03.346Z,95907
2022-10-09T14:49:13.113Z,95904
2022-10-09T14:50:22.814Z,95898